createdAt,value
2019-05-30T00:01:34.342Z,99233.23
2019-05-30T00:04:04.928Z,99235.39
2019-05-30T00:06:34.438Z,99234.70
2019-05-30T00:09:05.315Z,99236.98
2019-05-30T00:11:34.853Z,99234.62
2019-05-30T00:14:04.964Z,99233.62
2019-05-30T00:16:34.512Z,99235.65
2019-05-30T00:19:05.039Z,99230.16
2019-05-30T00:21:34.549Z,99242.28
2019-05-30T00:24:04.294Z,99249.90
2019-05-30T00:26:33.640Z,99250.61
2019-05-30T00:29:03.046Z,99246.23
2019-05-30T00:31:32.881Z,99256.69
2019-05-30T00:34:02.560Z,99256.03
2019-05-30T00:36:33.205Z,99256.38
2019-05-30T00:39:04.325Z,99262.75
2019-05-30T00:41:33.699Z,99257.32
2019-05-30T00:44:04.353Z,99254.95
2019-05-30T00:46:34.074Z,99264.11
2019-05-30T00:49:04.545Z,99261.39
2019-05-30T00:51:34.085Z,99265.17
2019-05-30T00:54:04.727Z,99268.23
2019-05-30T00:56:34.277Z,99266.48
2019-05-30T00:59:04.923Z,99268.64
2019-05-30T01:01:34.446Z,99267.80
2019-05-30T01:04:04.926Z,99271.83
2019-05-30T01:06:34.503Z,99272.66
2019-05-30T01:09:05.468Z,99273.79
2019-05-30T01:11:34.921Z,99275.63
2019-05-30T01:14:05.429Z,99278.13
2019-05-30T01:16:35.031Z,99281.31
2019-05-30T01:19:05.269Z,99282.81
2019-05-30T01:21:34.941Z,99286.14
2019-05-30T01:24:05.647Z,99286.14
2019-05-30T01:26:35.280Z,99286.98
2019-05-30T01:29:05.555Z,99291.52
2019-05-30T01:31:35.252Z,99290.67
2019-05-30T01:34:05.870Z,99299.80
2019-05-30T01:37:29.011Z,99296.44
2019-05-30T01:39:59.647Z,99295.05
2019-05-30T01:42:29.458Z,99302.34
2019-05-30T01:45:00.214Z,99297.63
2019-05-30T01:47:29.765Z,99304.49
2019-05-30T01:50:00.305Z,99298.63
2019-05-30T01:52:30.027Z,99305.83
2019-05-30T01:55:00.473Z,99305.48
2019-05-30T01:57:29.843Z,99313.04
2019-05-30T02:00:00.690Z,99319.52
2019-05-30T02:02:30.207Z,99315.84
2019-05-30T02:05:01.086Z,99315.16
2019-05-30T02:07:30.756Z,99323.84
2019-05-30T02:10:01.114Z,99323.81
2019-05-30T02:15:35.580Z,99328.22
2019-05-30T02:18:05.768Z,99332.73
2019-05-30T02:20:35.437Z,99334.62
2019-05-30T02:23:06.107Z,99340.71
2019-05-30T02:25:36.085Z,99337.91
2019-05-30T02:28:06.271Z,99345.73
2019-05-30T02:30:35.847Z,99341.70
2019-05-30T02:33:06.814Z,99346.57
2019-05-30T02:35:36.398Z,99346.11
2019-05-30T02:38:07.353Z,99346.61
2019-05-30T02:40:37.391Z,99346.11
2019-05-30T02:43:07.565Z,99341.52
2019-05-30T02:45:37.615Z,99339.95
2019-05-30T02:48:07.469Z,99343.70
2019-05-30T02:50:36.995Z,99332.47
2019-05-30T02:53:08.174Z,99343.70
2019-05-30T02:55:37.682Z,99340.67
2019-05-30T02:58:08.617Z,99341.20
2019-05-30T03:00:38.466Z,99344.04
2019-05-30T03:03:09.764Z,99348.22
2019-05-30T03:05:39.687Z,99348.34
2019-05-30T03:08:12.165Z,99356.00
2019-05-30T03:10:41.573Z,99360.60
2019-05-30T03:13:12.868Z,99356.89
2019-05-30T03:15:42.818Z,99358.53
2019-05-30T03:18:14.667Z,99363.46
2019-05-30T03:20:43.842Z,99375.41
2019-05-30T03:23:14.722Z,99377.22
2019-05-30T03:25:44.631Z,99381.25
2019-05-30T03:28:14.107Z,99386.41
2019-05-30T03:30:45.556Z,99396.16
2019-05-30T03:33:34.764Z,99394.59
2019-05-30T03:35:46.696Z,99391.34
2019-05-30T03:38:16.204Z,99396.02
2019-05-30T03:40:45.851Z,99406.42
2019-05-30T03:43:16.067Z,99403.85
2019-05-30T03:45:45.926Z,99403.77
2019-05-30T03:48:18.923Z,99404.49
2019-05-30T03:50:51.828Z,99403.03
2019-05-30T03:53:23.028Z,99410.57
2019-05-30T03:55:57.736Z,99409.27
2019-05-30T03:58:37.318Z,99416.92
2019-05-30T04:01:10.185Z,99414.43
2019-05-30T04:03:58.206Z,99424.54
2019-05-30T04:06:31.694Z,99423.55
2019-05-30T04:09:07.325Z,99422.20
2019-05-30T04:11:51.462Z,99423.58
2019-05-30T04:14:25.117Z,99430.06
2019-05-30T04:16:54.456Z,99439.13
2019-05-30T04:19:23.935Z,99439.18
2019-05-30T04:21:53.556Z,99437.67
2019-05-30T04:24:22.921Z,99441.02
2019-05-30T04:26:52.441Z,99438.69
2019-05-30T04:29:21.960Z,99445.59
2019-05-30T04:31:51.434Z,99443.34
2019-05-30T04:34:20.801Z,99446.16
2019-05-30T04:36:53.167Z,99446.97
2019-05-30T04:39:21.463Z,99449.48
2019-05-30T04:41:50.848Z,99447.95
2019-05-30T04:44:20.642Z,99447.31
2019-05-30T04:46:50.288Z,99443.51
2019-05-30T04:49:21.626Z,99447.70
2019-05-30T04:51:50.892Z,99452.09
2019-05-30T04:54:21.429Z,99460.61
2019-05-30T04:56:51.075Z,99465.73
2019-05-30T04:59:21.927Z,99460.16
2019-05-30T05:01:51.752Z,99460.15
2019-05-30T05:04:21.771Z,99462.11
2019-05-30T05:06:51.525Z,99470.14
2019-05-30T05:09:22.365Z,99468.69
2019-05-30T05:11:51.920Z,99469.44
2019-05-30T05:14:22.774Z,99470.09
2019-05-30T05:16:52.584Z,99473.66
2019-05-30T05:19:24.950Z,99477.70
2019-05-30T05:21:53.212Z,99476.73
2019-05-30T05:24:23.634Z,99479.12
2019-05-30T05:26:53.231Z,99485.09
2019-05-30T05:29:23.799Z,99481.08
2019-05-30T05:31:53.821Z,99492.44
2019-05-30T05:34:23.179Z,99493.77
2019-05-30T05:36:52.595Z,99491.67
2019-05-30T05:39:22.305Z,99493.46
2019-05-30T05:41:51.930Z,99501.39
2019-05-30T05:44:22.371Z,99499.39
2019-05-30T05:46:51.774Z,99508.99
2019-05-30T05:49:22.534Z,99504.95
2019-05-30T05:51:52.179Z,99500.33
2019-05-30T05:54:22.885Z,99505.02
2019-05-30T05:56:52.382Z,99504.33
2019-05-30T05:59:23.013Z,99500.06
2019-05-30T06:01:52.530Z,99499.91
2019-05-30T06:04:23.143Z,99500.05
2019-05-30T06:06:52.794Z,99490.22
2019-05-30T06:09:22.588Z,99496.78
2019-05-30T06:11:52.103Z,99495.67
2019-05-30T06:14:21.969Z,99500.00
2019-05-30T06:16:51.545Z,99503.08
2019-05-30T06:19:21.208Z,99505.75
2019-05-30T06:21:54.129Z,99506.20
2019-05-30T06:24:22.139Z,99507.40
2019-05-30T06:26:51.640Z,99509.27
2019-05-30T06:29:22.126Z,99514.41
2019-05-30T06:31:51.571Z,99516.59
2019-05-30T06:34:32.762Z,99521.20
2019-05-30T06:36:52.297Z,99519.42
2019-05-30T06:39:21.646Z,99510.49
2019-05-30T06:41:51.133Z,99514.38
2019-05-30T06:44:21.798Z,99519.77
2019-05-30T06:46:51.321Z,99518.36
2019-05-30T06:49:20.883Z,99517.91
2019-05-30T06:51:50.415Z,99521.31
2019-05-30T06:54:21.360Z,99519.53
2019-05-30T06:56:50.976Z,99519.66
2019-05-30T06:59:21.430Z,99516.62
2019-05-30T07:01:52.246Z,99514.10
2019-05-30T07:04:23.320Z,99518.28
2019-05-30T07:06:53.136Z,99512.81
2019-05-30T07:09:22.814Z,99523.51
2019-05-30T07:11:52.381Z,99518.43
2019-05-30T07:14:22.969Z,99506.52
2019-05-30T07:16:52.439Z,99508.45
2019-05-30T07:19:23.238Z,99505.92
2019-05-30T07:21:52.925Z,99509.41
2019-05-30T07:24:23.622Z,99512.81
2019-05-30T07:26:53.404Z,99515.70
2019-05-30T07:29:23.940Z,99515.19
2019-05-30T07:31:53.361Z,99506.30
2019-05-30T07:34:23.910Z,99509.00
2019-05-30T07:36:53.514Z,99511.53
2019-05-30T07:39:22.882Z,99516.90
2019-05-30T07:42:05.808Z,99506.63
2019-05-30T07:44:24.519Z,99510.75
2019-05-30T07:46:54.068Z,99512.28
2019-05-30T07:49:23.448Z,99518.48
2019-05-30T07:51:52.899Z,99518.35
2019-05-30T07:54:22.433Z,99518.12
2019-05-30T07:56:51.905Z,99518.63
2019-05-30T07:59:21.339Z,99517.88
2019-05-30T08:01:51.551Z,99516.80
2019-05-30T08:04:20.917Z,99516.03
2019-05-30T08:06:50.317Z,99514.33
2019-05-30T08:09:19.858Z,99507.33
2019-05-30T08:11:49.922Z,99506.70
2019-05-30T08:14:19.603Z,99509.15
2019-05-30T08:16:48.968Z,99505.85
2019-05-30T08:19:18.455Z,99503.39
2019-05-30T08:21:47.991Z,99515.20
2019-05-30T08:24:17.485Z,99504.50
2019-05-30T08:26:46.836Z,99508.17
2019-05-30T08:29:16.408Z,99499.30
2019-05-30T08:31:45.974Z,99502.62
2019-05-30T08:34:15.328Z,99496.09
2019-05-30T08:36:44.733Z,99502.16
2019-05-30T08:39:14.317Z,99493.27
2019-05-30T08:41:43.914Z,99485.00
2019-05-30T08:44:13.387Z,99487.84
2019-05-30T08:46:42.912Z,99481.06
2019-05-30T08:49:12.886Z,99480.60
2019-05-30T08:51:42.363Z,99485.81
2019-05-30T08:54:13.962Z,99487.89
2019-05-30T08:56:42.878Z,99497.03
2019-05-30T08:59:12.357Z,99490.67
2019-05-30T09:01:42.260Z,99479.62
2019-05-30T09:04:11.788Z,99483.95
2019-05-30T09:06:42.011Z,99479.21
2019-05-30T09:09:11.998Z,99480.09
2019-05-30T09:11:42.325Z,99476.82
2019-05-30T09:14:11.821Z,99477.38
2019-05-30T09:16:41.622Z,99477.34
2019-05-30T09:19:11.510Z,99480.03
2019-05-30T09:21:41.446Z,99486.97
2019-05-30T09:24:11.074Z,99487.49
2019-05-30T09:26:45.489Z,99492.48
2019-05-30T09:29:12.198Z,99486.95
2019-05-30T09:31:42.806Z,99478.44
2019-05-30T09:34:13.674Z,99484.01
2019-05-30T09:36:43.147Z,99471.31
2019-05-30T09:39:12.602Z,99475.08
2019-05-30T09:41:42.226Z,99472.73
2019-05-30T09:44:12.936Z,99462.80
2019-05-30T09:46:42.602Z,99461.89
2019-05-30T09:49:12.049Z,99465.86
2019-05-30T09:51:42.547Z,99474.48
2019-05-30T09:54:12.680Z,99467.45
2019-05-30T09:56:43.353Z,99470.14
2019-05-30T09:59:13.287Z,99467.16
2019-05-30T10:01:44.245Z,99462.18
2019-05-30T10:04:13.808Z,99457.12
2019-05-30T10:06:43.613Z,99458.70
2019-05-30T10:09:14.013Z,99457.80
2019-05-30T10:11:44.492Z,99456.02
2019-05-30T10:14:14.644Z,99466.19
2019-05-30T10:16:47.880Z,99455.72
2019-05-30T10:19:15.306Z,99454.22
2019-05-30T10:21:45.960Z,99453.66
2019-05-30T10:24:15.874Z,99453.00
2019-05-30T10:26:46.130Z,99459.76
2019-05-30T10:29:16.602Z,99453.77
2019-05-30T10:31:46.505Z,99451.35
2019-05-30T10:34:16.056Z,99459.80
2019-05-30T10:36:47.226Z,99455.88
2019-05-30T10:39:16.790Z,99452.20
2019-05-30T10:41:47.478Z,99458.69
2019-05-30T10:44:17.110Z,99453.23
2019-05-30T10:46:47.569Z,99450.53
2019-05-30T10:49:31.516Z,99444.66
2019-05-30T10:51:49.624Z,99445.23
2019-05-30T10:54:19.248Z,99440.00
2019-05-30T10:56:49.975Z,99432.78
2019-05-30T10:59:19.442Z,99432.77
2019-05-30T11:01:50.228Z,99427.09
2019-05-30T11:04:19.962Z,99432.30
2019-05-30T11:07:18.807Z,99436.54
2019-05-30T11:09:52.868Z,99431.13
2019-05-30T11:12:22.262Z,99433.00
2019-05-30T11:14:51.777Z,99442.55
2019-05-30T11:17:21.222Z,99436.13
2019-05-30T11:19:51.762Z,99431.81
2019-05-30T11:22:21.620Z,99427.09
2019-05-30T11:24:52.625Z,99420.41
2019-05-30T11:27:22.252Z,99415.70
2019-05-30T11:29:52.884Z,99429.40
2019-05-30T11:32:22.622Z,99420.59
2019-05-30T11:34:53.063Z,99421.59
2019-05-30T11:37:22.632Z,99421.87
2019-05-30T11:39:53.252Z,99423.67
2019-05-30T11:42:22.693Z,99431.25
2019-05-30T11:44:52.057Z,99426.52
2019-05-30T11:47:21.494Z,99421.60
2019-05-30T11:49:51.615Z,99409.91
2019-05-30T11:52:21.193Z,99408.89
2019-05-30T11:54:51.972Z,99413.81
2019-05-30T11:57:21.524Z,99402.47
2019-05-30T11:59:52.147Z,99397.13
2019-05-30T12:02:21.729Z,99402.84
2019-05-30T12:04:52.487Z,99399.13
2019-05-30T12:07:35.442Z,99394.95
2019-05-30T12:09:53.198Z,99394.05
2019-05-30T12:12:22.655Z,99397.63
2019-05-30T12:14:53.316Z,99401.29
2019-05-30T12:17:22.975Z,99399.74
2019-05-30T12:19:53.401Z,99392.56
2019-05-30T12:22:22.856Z,99396.77
2019-05-30T12:24:53.779Z,99388.91
2019-05-30T12:27:23.406Z,99385.11
2019-05-30T12:29:54.011Z,99383.74
2019-05-30T12:32:23.540Z,99400.86
2019-05-30T12:34:54.280Z,99391.39
2019-05-30T12:37:23.855Z,99388.58
2019-05-30T12:39:54.465Z,99381.66
2019-05-30T12:42:24.048Z,99377.33
2019-05-30T12:44:53.380Z,99370.53
2019-05-30T12:47:22.890Z,99364.90
2019-05-30T12:49:53.264Z,99355.15
2019-05-30T12:52:22.868Z,99358.06
2019-05-30T12:54:52.272Z,99351.52
2019-05-30T12:57:21.649Z,99350.04
2019-05-30T12:59:51.170Z,99356.50
2019-05-30T13:02:20.643Z,99355.10
2019-05-30T13:04:49.998Z,99364.47
2019-05-30T13:07:19.376Z,99358.42
2019-05-30T13:09:48.977Z,99353.33
2019-05-30T13:12:18.436Z,99340.80
2019-05-30T13:14:47.807Z,99340.49
2019-05-30T13:17:17.335Z,99336.42
2019-05-30T13:19:46.912Z,99343.63
2019-05-30T13:22:16.319Z,99344.31
2019-05-30T13:24:45.830Z,99348.00
2019-05-30T13:27:15.323Z,99358.39
2019-05-30T13:29:44.678Z,99350.10
2019-05-30T13:32:14.085Z,99352.09
2019-05-30T13:34:43.576Z,99349.17
2019-05-30T13:37:13.146Z,99353.05
2019-05-30T13:39:42.535Z,99350.66
2019-05-30T13:42:11.902Z,99346.88
2019-05-30T13:44:41.448Z,99346.95
2019-05-30T13:47:11.095Z,99341.03
2019-05-30T13:49:40.449Z,99349.98
2019-05-30T13:52:09.968Z,99351.59
2019-05-30T13:54:39.647Z,99355.98
2019-05-30T13:57:09.773Z,99348.19
2019-05-30T13:59:39.222Z,99350.31
2019-05-30T14:02:08.710Z,99345.80
2019-05-30T14:04:38.216Z,99351.79
2019-05-30T14:07:08.482Z,99341.62
2019-05-30T14:09:37.911Z,99338.61
2019-05-30T14:12:07.273Z,99346.28
2019-05-30T14:14:36.732Z,99342.48
2019-05-30T14:17:09.518Z,99336.66
2019-05-30T14:19:37.342Z,99341.89
2019-05-30T14:22:07.261Z,99341.89
2019-05-30T14:24:36.864Z,99346.33
2019-05-30T14:27:07.540Z,99336.86
2019-05-30T14:29:36.979Z,99339.17
2019-05-30T14:32:06.388Z,99335.69
2019-05-30T14:34:35.853Z,99331.18
2019-05-30T14:37:06.393Z,99336.63
2019-05-30T14:39:35.903Z,99328.02
2019-05-30T14:42:05.410Z,99341.70
2019-05-30T14:44:34.764Z,99334.20
2019-05-30T14:47:04.316Z,99334.40
2019-05-30T14:49:33.823Z,99333.57
2019-05-30T14:52:04.537Z,99330.41
2019-05-30T14:54:34.033Z,99324.03
2019-05-30T14:57:03.425Z,99319.04
2019-05-30T14:59:32.973Z,99319.94
2019-05-30T15:02:02.491Z,99318.33
2019-05-30T15:04:31.875Z,99312.94
2019-05-30T15:07:01.321Z,99308.17
2019-05-30T15:09:30.821Z,99309.99
2019-05-30T15:12:00.260Z,99307.48
2019-05-30T15:14:29.607Z,99304.14
2019-05-30T15:16:59.015Z,99304.62
2019-05-30T15:19:28.510Z,99303.09
2019-05-30T15:21:57.889Z,99300.48
2019-05-30T15:24:27.374Z,99300.87
2019-05-30T15:26:56.924Z,99302.01
2019-05-30T15:29:26.288Z,99305.45
2019-05-30T15:31:55.705Z,99314.58
2019-05-30T15:34:25.194Z,99307.27
2019-05-30T15:36:54.617Z,99306.41
2019-05-30T15:39:32.418Z,99307.50
2019-05-30T15:41:55.165Z,99304.73
2019-05-30T15:44:24.573Z,99303.81
2019-05-30T15:46:54.077Z,99305.70
2019-05-30T15:49:23.547Z,99306.04
2019-05-30T15:51:52.917Z,99301.94
2019-05-30T15:54:22.427Z,99297.53
2019-05-30T15:56:51.871Z,99305.70
2019-05-30T15:59:21.279Z,99297.31
2019-05-30T16:01:50.768Z,99304.13
2019-05-30T16:04:20.527Z,99296.91
2019-05-30T16:06:49.985Z,99295.63
2019-05-30T16:09:19.515Z,99305.49
2019-05-30T16:11:48.978Z,99302.36
2019-05-30T16:14:19.415Z,99307.80
2019-05-30T16:16:48.860Z,99304.34
2019-05-30T16:19:23.298Z,99303.61
2019-05-30T16:21:49.586Z,99308.02
2019-05-30T16:24:18.998Z,99303.95
2019-05-30T16:26:48.394Z,99306.73
2019-05-30T16:29:17.851Z,99303.12
2019-05-30T16:31:47.380Z,99300.92
2019-05-30T16:34:17.974Z,99305.72
2019-05-30T16:36:47.513Z,99300.91
2019-05-30T16:39:18.122Z,99302.45
2019-05-30T16:41:47.609Z,99305.59
2019-05-30T16:44:18.381Z,99299.55
2019-05-30T16:46:48.679Z,99296.49
2019-05-30T16:49:18.536Z,99285.30
2019-05-30T16:51:48.006Z,99280.22
2019-05-30T16:54:17.507Z,99283.11
2019-05-30T16:56:47.048Z,99284.41
2019-05-30T16:59:16.608Z,99284.72
2019-05-30T17:01:56.436Z,99286.88
2019-05-30T17:04:17.296Z,99286.84
2019-05-30T17:06:46.778Z,99282.73
2019-05-30T17:09:17.185Z,99286.73
2019-05-30T17:11:46.562Z,99278.80
2019-05-30T17:14:16.041Z,99279.95
2019-05-30T17:16:45.546Z,99283.15
2019-05-30T17:19:16.344Z,99274.53
2019-05-30T17:21:46.077Z,99266.12
2019-05-30T17:24:16.866Z,99269.94
2019-05-30T17:26:46.346Z,99278.15
2019-05-30T17:29:15.813Z,99281.95
2019-05-30T17:31:45.359Z,99287.38
2019-05-30T17:34:14.713Z,99298.57
2019-05-30T17:36:44.094Z,99317.12
2019-05-30T17:39:14.097Z,99343.57
2019-05-30T17:41:43.549Z,99343.27
2019-05-30T17:44:12.911Z,99349.60
2019-05-30T17:46:42.462Z,99367.66
2019-05-30T17:49:11.941Z,99393.29
2019-05-30T17:51:42.818Z,99413.00
2019-05-30T17:54:12.267Z,99421.03
2019-05-30T17:56:41.677Z,99435.65
2019-05-30T17:59:11.130Z,99430.05
2019-05-30T18:01:40.710Z,99482.97
2019-05-30T18:04:11.211Z,99458.61
2019-05-30T18:06:40.697Z,99469.51
2019-05-30T18:09:10.122Z,99455.21
2019-05-30T18:11:39.982Z,99427.46
2019-05-30T18:14:09.585Z,99422.63
2019-05-30T18:16:40.463Z,99422.63
2019-05-30T18:19:10.165Z,99419.50
2019-05-30T18:21:39.777Z,99419.50
2019-05-30T18:24:09.303Z,99434.89
2019-05-30T18:26:38.794Z,99446.82
2019-05-30T18:29:08.163Z,99450.02
2019-05-30T18:31:37.608Z,99439.61
2019-05-30T18:34:07.086Z,99436.86
2019-05-30T18:36:39.253Z,99444.87
2019-05-30T18:39:09.128Z,99440.71
2019-05-30T18:41:38.597Z,99432.39
2019-05-30T18:44:07.986Z,99439.50
2019-05-30T18:46:38.683Z,99448.62
2019-05-30T18:49:08.390Z,99452.30
2019-05-30T18:51:37.868Z,99463.98
2019-05-30T18:54:07.299Z,99472.52
2019-05-30T18:56:37.015Z,99479.08
2019-05-30T18:59:06.651Z,99487.27
2019-05-30T19:01:37.771Z,99491.08
2019-05-30T19:04:07.328Z,99496.88
2019-05-30T19:06:36.748Z,99505.39
2019-05-30T19:09:07.951Z,99511.34
2019-05-30T19:11:38.467Z,99514.66
2019-05-30T19:14:07.825Z,99509.65
2019-05-30T19:16:37.279Z,99509.55
2019-05-30T19:19:06.755Z,99510.84
2019-05-30T19:21:36.282Z,99514.02
2019-05-30T19:24:06.159Z,99509.21
2019-05-30T19:26:36.731Z,99512.68
2019-05-30T19:29:06.299Z,99513.17
2019-05-30T19:31:36.961Z,99515.56
2019-05-30T19:34:06.523Z,99514.86
2019-05-30T19:36:35.914Z,99512.59
2019-05-30T19:39:07.224Z,99520.87
2019-05-30T19:41:53.413Z,99519.99
2019-05-30T19:44:08.807Z,99520.98
2019-05-30T19:46:38.447Z,99517.70
2019-05-30T19:49:07.904Z,99517.81
2019-05-30T19:51:37.376Z,99521.19
2019-05-30T19:54:06.791Z,99514.22
2019-05-30T19:56:38.967Z,99522.47
2019-05-30T19:59:07.572Z,99520.58
2019-05-30T20:01:38.012Z,99532.41
2019-05-30T20:04:07.600Z,99539.84
2019-05-30T20:06:37.063Z,99559.70
2019-05-30T20:09:08.462Z,99551.53
2019-05-30T20:11:39.007Z,99541.57
2019-05-30T20:14:08.902Z,99553.20
2019-05-30T20:16:39.831Z,99557.52
2019-05-30T20:19:09.308Z,99554.71
2019-05-30T20:21:39.845Z,99557.33
2019-05-30T20:24:09.402Z,99559.45
2019-05-30T20:26:38.865Z,99563.48
2019-05-30T20:29:08.275Z,99559.10
2019-05-30T20:31:37.706Z,99556.77
2019-05-30T20:34:07.302Z,99557.63
2019-05-30T20:36:36.776Z,99551.13
2019-05-30T20:39:07.145Z,99550.48
2019-05-30T20:41:36.905Z,99555.55
2019-05-30T20:44:06.411Z,99557.39
2019-05-30T20:46:36.959Z,99558.67
2019-05-30T20:49:06.677Z,99556.44
2019-05-30T20:51:37.180Z,99568.50
2019-05-30T20:54:07.345Z,99575.11
2019-05-30T20:56:37.360Z,99572.92
2019-05-30T20:59:10.004Z,99569.39
2019-05-30T21:01:38.198Z,99570.69
2019-05-30T21:04:07.570Z,99567.55
2019-05-30T21:06:38.719Z,99562.89
2019-05-30T21:09:27.476Z,99563.47
2019-05-30T21:11:44.341Z,99566.56
2019-05-30T21:14:15.950Z,99569.89
2019-05-30T21:16:49.197Z,99571.80
2019-05-30T21:19:18.648Z,99570.25
2019-05-30T21:21:48.088Z,99578.99
2019-05-30T21:24:17.547Z,99585.55
2019-05-30T21:26:47.049Z,99591.14
2019-05-30T21:29:16.403Z,99589.00
2019-05-30T21:31:46.323Z,99585.62
2019-05-30T21:34:17.032Z,99586.61
2019-05-30T21:36:46.590Z,99588.80
2019-05-30T21:39:17.019Z,99587.73
2019-05-30T21:41:46.429Z,99590.70
2019-05-30T21:44:15.959Z,99587.50
2019-05-30T21:46:46.665Z,99595.83
2019-05-30T21:49:16.154Z,99581.80
2019-05-30T21:51:45.574Z,99592.80
2019-05-30T21:54:15.039Z,99586.45
2019-05-30T21:56:45.884Z,99581.16
2019-05-30T21:59:15.650Z,99579.57
2019-05-30T22:01:46.549Z,99576.38
2019-05-30T22:04:16.152Z,99573.83
2019-05-30T22:06:45.569Z,99574.89
2019-05-30T22:09:15.170Z,99577.25
2019-05-30T22:11:45.572Z,99572.70
2019-05-30T22:14:15.158Z,99573.80
2019-05-30T22:16:45.912Z,99574.58
2019-05-30T22:19:15.473Z,99577.00
2019-05-30T22:21:46.116Z,99574.89
2019-05-30T22:24:15.508Z,99575.24
2019-05-30T22:26:46.353Z,99569.64
2019-05-30T22:29:16.455Z,99564.98
2019-05-30T22:31:46.585Z,99567.63
2019-05-30T22:34:16.627Z,99569.53
2019-05-30T22:36:49.206Z,99572.46
2019-05-30T22:39:18.703Z,99569.75
2019-05-30T22:41:48.084Z,99573.86
2019-05-30T22:44:17.595Z,99574.97
2019-05-30T22:46:48.089Z,99572.66
2019-05-30T22:49:17.549Z,99570.09
2019-05-30T22:51:47.142Z,99569.94
2019-05-30T22:54:16.614Z,99576.91
2019-05-30T22:56:47.244Z,99582.64
2019-05-30T22:59:16.673Z,99579.01
2019-05-30T23:01:46.951Z,99584.47
2019-05-30T23:04:16.424Z,99591.98
2019-05-30T23:06:46.311Z,99596.17
2019-05-30T23:09:15.742Z,99591.09
2019-05-30T23:11:45.583Z,99591.67
2019-05-30T23:14:15.250Z,99588.70
2019-05-30T23:16:46.048Z,99591.88
2019-05-30T23:19:16.590Z,99590.75
2019-05-30T23:21:46.802Z,99592.78
2019-05-30T23:24:16.175Z,99588.91
2019-05-30T23:26:45.668Z,99582.63
2019-05-30T23:29:15.194Z,99586.73
2019-05-30T23:31:44.671Z,99589.27
2019-05-30T23:37:54.713Z,99588.45
2019-05-30T23:40:24.451Z,99593.84
2019-05-30T23:42:55.121Z,99585.77
2019-05-30T23:45:24.760Z,99595.59
2019-05-30T23:47:54.199Z,99596.95
2019-05-30T23:50:23.796Z,99597.09
2019-05-30T23:52:54.062Z,99597.58
2019-05-30T23:55:23.632Z,99618.22
2019-05-30T23:57:53.123Z,99600.39
